Conway, North Dakota
Current Conditions -  °F | °C
As of 6:35 AM on Monday 24 Nov 2014 (Local Time) from KGAF Reporting Station
Light Snow Light Snow  
Wind Chill: -14°   Ceiling: 1700
Heat Index:   Visibility: 5mi
Dew Point:   Wind: 23mph
Humidity: 79%   Direction: 340°NNW
Pressure: 29.71"   Gusts: 30mph
Location:  48.2362°N, 97.4515°W
Report Text: KGAF 241235Z AUTO 34020G26KT 5SM -SN OVC017 M14/M17 A2971 RMK AO2
Loading
Personal Weather Stations






























Interactive Weather Map New forecast layout! Learn more

10-Day Weather Forecast

Advertisements
Track Severe Weather on mobile